createdAt,value
2019-03-22T00:00:39.243Z,100.00
2019-03-22T00:03:08.864Z,100.00
2019-03-22T00:05:38.360Z,100.00
2019-03-22T00:08:07.911Z,100.00
2019-03-22T00:10:37.515Z,100.00
2019-03-22T00:13:07.165Z,100.00
2019-03-22T00:15:36.798Z,100.00
2019-03-22T00:18:06.351Z,100.00
2019-03-22T00:20:35.859Z,100.00
2019-03-22T00:23:05.491Z,100.00
2019-03-22T00:25:34.984Z,100.00
2019-03-22T00:28:04.492Z,100.00
2019-03-22T00:30:34.018Z,100.00
2019-03-22T00:33:04.077Z,100.00
2019-03-22T00:35:33.572Z,100.00
2019-03-22T00:38:03.102Z,100.00
2019-03-22T00:40:32.668Z,100.00
2019-03-22T00:43:04.940Z,100.00
2019-03-22T00:45:34.415Z,100.00
2019-03-22T00:48:03.984Z,100.00
2019-03-22T00:50:33.494Z,100.00
2019-03-22T00:53:03.058Z,100.00
2019-03-22T00:55:32.634Z,100.00
2019-03-22T00:58:02.163Z,100.00
2019-03-22T01:00:31.671Z,100.00
2019-03-22T01:03:01.226Z,100.00
2019-03-22T01:05:30.836Z,100.00
2019-03-22T01:08:00.316Z,100.00
2019-03-22T01:10:29.839Z,100.00
2019-03-22T01:12:59.491Z,100.00
2019-03-22T01:15:29.039Z,100.00
2019-03-22T01:17:58.596Z,100.00
2019-03-22T01:20:28.116Z,100.00
2019-03-22T01:22:57.602Z,100.00
2019-03-22T01:25:27.086Z,100.00
2019-03-22T01:27:56.605Z,100.00
2019-03-22T01:30:26.110Z,100.00
2019-03-22T01:32:55.609Z,100.00
2019-03-22T01:35:25.184Z,100.00
2019-03-22T01:37:54.736Z,100.00
2019-03-22T01:40:24.211Z,100.00
2019-03-22T01:42:53.854Z,100.00
2019-03-22T01:45:23.486Z,100.00
2019-03-22T01:47:52.959Z,100.00
2019-03-22T01:50:22.468Z,100.00
2019-03-22T01:52:51.982Z,100.00
2019-03-22T01:55:21.538Z,100.00
2019-03-22T01:57:53.607Z,100.00
2019-03-22T02:00:22.425Z,100.00
2019-03-22T02:02:51.951Z,100.00
2019-03-22T02:05:21.557Z,100.00
2019-03-22T02:07:51.053Z,100.00
2019-03-22T02:10:20.612Z,100.00
2019-03-22T02:12:50.155Z,100.00
2019-03-22T02:15:19.695Z,100.00
2019-03-22T02:17:49.296Z,100.00
2019-03-22T02:20:19.675Z,100.00
2019-03-22T02:22:49.289Z,100.00
2019-03-22T02:25:18.834Z,100.00
2019-03-22T02:27:48.346Z,100.00
2019-03-22T02:30:19.251Z,100.00
2019-03-22T02:32:48.736Z,100.00
2019-03-22T02:35:28.479Z,100.00
2019-03-22T02:37:49.559Z,100.00
2019-03-22T02:40:19.189Z,100.00
2019-03-22T02:42:48.735Z,100.00
2019-03-22T02:45:18.379Z,100.00
2019-03-22T02:47:48.087Z,100.00
2019-03-22T02:50:19.776Z,100.00
2019-03-22T02:52:49.204Z,100.00
2019-03-22T02:55:18.778Z,100.00
2019-03-22T02:57:48.378Z,100.00
2019-03-22T03:00:19.049Z,100.00
2019-03-22T03:02:48.562Z,100.00
2019-03-22T03:05:18.149Z,100.00
2019-03-22T03:07:47.693Z,100.00
2019-03-22T03:10:18.115Z,100.00
2019-03-22T03:12:47.953Z,100.00
2019-03-22T03:15:20.882Z,100.00
2019-03-22T03:17:50.393Z,100.00
2019-03-22T03:20:20.533Z,100.00
2019-03-22T03:22:50.043Z,100.00
2019-03-22T03:25:19.678Z,100.00
2019-03-22T03:27:49.291Z,100.00
2019-03-22T03:30:21.517Z,100.00
2019-03-22T03:32:51.297Z,100.00
2019-03-22T03:35:20.957Z,100.00
2019-03-22T03:37:50.598Z,100.00
2019-03-22T03:40:20.380Z,100.00
2019-03-22T03:42:49.980Z,100.00
2019-03-22T03:45:32.664Z,100.00
2019-03-22T03:48:10.568Z,100.00
2019-03-22T03:50:40.189Z,100.00
2019-03-22T03:53:09.730Z,100.00
2019-03-22T03:55:39.239Z,100.00
2019-03-22T03:58:08.722Z,100.00
2019-03-22T04:00:38.275Z,100.00
2019-03-22T04:03:07.794Z,100.00
2019-03-22T04:05:37.279Z,100.00
2019-03-22T04:08:06.917Z,100.00
2019-03-22T04:10:36.468Z,100.00
2019-03-22T04:13:06.027Z,100.00
2019-03-22T04:15:35.529Z,100.00
2019-03-22T04:18:05.233Z,100.00
2019-03-22T04:20:34.746Z,100.00
2019-03-22T04:23:04.242Z,100.00
2019-03-22T04:25:33.756Z,100.00
2019-03-22T04:28:03.339Z,100.00
2019-03-22T04:30:32.853Z,100.00
2019-03-22T04:33:02.343Z,100.00
2019-03-22T04:35:31.825Z,100.00
2019-03-22T04:38:01.399Z,100.00
2019-03-22T04:40:31.483Z,100.00
2019-03-22T04:43:00.974Z,100.00
2019-03-22T04:45:32.165Z,100.00
2019-03-22T04:48:12.328Z,100.00
2019-03-22T04:50:44.193Z,100.00
2019-03-22T04:53:18.449Z,100.00
2019-03-22T04:55:52.582Z,100.00
2019-03-22T04:58:23.036Z,100.00
2019-03-22T05:00:54.505Z,100.00
2019-03-22T05:03:25.592Z,100.00
2019-03-22T05:05:58.179Z,100.00
2019-03-22T05:08:30.525Z,100.00
2019-03-22T05:11:02.280Z,100.00
2019-03-22T05:13:34.367Z,100.00
2019-03-22T05:16:05.265Z,100.00
2019-03-22T05:18:35.639Z,100.00
2019-03-22T05:21:06.779Z,100.00
2019-03-22T05:23:37.129Z,100.00
2019-03-22T05:26:07.089Z,100.00
2019-03-22T05:28:37.191Z,100.00
2019-03-22T05:31:26.399Z,100.00
2019-03-22T05:33:55.992Z,100.00
2019-03-22T05:36:26.624Z,100.00
2019-03-22T05:38:56.092Z,100.00
2019-03-22T05:41:25.606Z,100.00
2019-03-22T05:43:55.090Z,100.00
2019-03-22T05:46:24.578Z,100.00
2019-03-22T05:48:54.110Z,100.00
2019-03-22T05:51:23.553Z,100.00
2019-03-22T05:53:53.067Z,100.00
2019-03-22T05:56:22.567Z,100.00
2019-03-22T05:58:52.068Z,100.00
2019-03-22T06:01:21.575Z,100.00
2019-03-22T06:03:51.059Z,100.00
2019-03-22T06:06:20.558Z,100.00
2019-03-22T06:08:50.051Z,100.00
2019-03-22T06:11:19.529Z,100.00
2019-03-22T06:13:49.026Z,100.00
2019-03-22T06:16:18.527Z,100.00
2019-03-22T06:18:50.364Z,100.00
2019-03-22T06:21:19.252Z,100.00
2019-03-22T06:23:48.719Z,100.00
2019-03-22T06:26:18.228Z,100.00
2019-03-22T06:28:47.716Z,100.00
2019-03-22T06:31:17.223Z,100.00
2019-03-22T06:33:46.756Z,100.00
2019-03-22T06:36:16.275Z,100.00
2019-03-22T06:38:45.776Z,100.00
2019-03-22T06:41:15.347Z,100.00
2019-03-22T06:43:44.847Z,100.00
2019-03-22T06:46:14.341Z,100.00
2019-03-22T06:48:43.846Z,100.00
2019-03-22T06:51:13.341Z,100.00
2019-03-22T06:53:42.847Z,100.00
2019-03-22T06:56:12.376Z,100.00
2019-03-22T06:58:41.901Z,100.00
2019-03-22T07:01:11.396Z,100.00
2019-03-22T07:03:40.882Z,100.00
2019-03-22T07:06:10.380Z,100.00
2019-03-22T07:08:39.858Z,100.00
2019-03-22T07:11:09.363Z,100.00
2019-03-22T07:13:38.911Z,100.00
2019-03-22T07:16:08.508Z,100.00
2019-03-22T07:18:38.103Z,100.00
2019-03-22T07:21:07.630Z,100.00
2019-03-22T07:23:37.160Z,100.00
2019-03-22T07:26:06.651Z,97.13
2019-03-22T07:28:36.158Z,96.96
2019-03-22T07:31:05.643Z,93.69
2019-03-22T07:33:35.151Z,94.74
2019-03-22T07:36:04.769Z,93.04
2019-03-22T07:38:34.278Z,91.61
2019-03-22T07:41:03.791Z,90.51
2019-03-22T07:43:33.343Z,90.74
2019-03-22T07:46:03.060Z,87.62
2019-03-22T07:48:32.578Z,86.25
2019-03-22T07:51:02.167Z,84.24
2019-03-22T07:53:31.656Z,82.87
2019-03-22T07:56:01.191Z,81.20
2019-03-22T07:58:30.720Z,78.44
2019-03-22T08:01:00.214Z,76.32
2019-03-22T08:03:29.728Z,73.16
2019-03-22T08:05:59.255Z,73.29
2019-03-22T08:08:28.768Z,63.29
2019-03-22T08:10:58.350Z,64.11
2019-03-22T08:13:27.871Z,62.24
2019-03-22T08:15:57.749Z,56.76
2019-03-22T08:18:27.489Z,59.92
2019-03-22T08:20:57.048Z,57.50
2019-03-22T08:23:26.607Z,59.96
2019-03-22T08:25:56.175Z,60.39
2019-03-22T08:28:25.679Z,56.85
2019-03-22T08:30:55.276Z,59.53
2019-03-22T08:33:24.744Z,53.97
2019-03-22T08:35:54.231Z,53.96
2019-03-22T08:38:23.809Z,54.90
2019-03-22T08:40:53.305Z,55.87
2019-03-22T08:43:22.811Z,52.38
2019-03-22T08:45:52.316Z,52.12
2019-03-22T08:48:21.759Z,54.90
2019-03-22T08:50:51.268Z,53.10
2019-03-22T08:53:20.822Z,52.87
2019-03-22T08:55:50.328Z,53.12
2019-03-22T08:58:19.820Z,53.95
2019-03-22T09:00:57.301Z,52.33
2019-03-22T09:03:20.612Z,50.70
2019-03-22T09:05:50.120Z,48.57
2019-03-22T09:08:19.651Z,48.18
2019-03-22T09:10:49.119Z,51.40
2019-03-22T09:13:18.721Z,48.91
2019-03-22T09:15:48.253Z,49.99
2019-03-22T09:18:17.714Z,50.71
2019-03-22T09:20:47.251Z,49.20
2019-03-22T09:23:16.855Z,49.52
2019-03-22T09:25:46.382Z,48.23
2019-03-22T09:28:15.932Z,50.57
2019-03-22T09:30:45.490Z,48.33
2019-03-22T09:33:14.980Z,47.83
2019-03-22T09:35:44.520Z,48.80
2019-03-22T09:38:14.100Z,49.59
2019-03-22T09:40:43.610Z,49.34
2019-03-22T09:43:13.302Z,51.26
2019-03-22T09:45:43.142Z,47.50
2019-03-22T09:48:12.792Z,44.60
2019-03-22T09:50:42.474Z,45.40
2019-03-22T09:53:11.958Z,46.06
2019-03-22T09:55:41.542Z,44.54
2019-03-22T09:58:11.120Z,44.84
2019-03-22T10:00:40.745Z,44.23
2019-03-22T10:03:10.225Z,44.22
2019-03-22T10:05:39.756Z,44.34
2019-03-22T10:08:09.223Z,41.51
2019-03-22T10:10:38.759Z,41.95
2019-03-22T10:13:08.269Z,41.04
2019-03-22T10:15:37.737Z,42.13
2019-03-22T10:18:07.232Z,39.66
2019-03-22T10:20:36.732Z,41.54
2019-03-22T10:23:06.305Z,36.83
2019-03-22T10:25:35.781Z,36.73
2019-03-22T10:28:05.501Z,37.95
2019-03-22T10:30:34.988Z,38.44
2019-03-22T10:33:04.545Z,38.53
2019-03-22T10:35:34.071Z,39.16
2019-03-22T10:38:06.332Z,37.54
2019-03-22T10:40:34.787Z,37.98
2019-03-22T10:43:04.370Z,37.53
2019-03-22T10:45:33.981Z,37.71
2019-03-22T10:48:03.626Z,37.63
2019-03-22T10:50:33.176Z,36.41
2019-03-22T10:53:02.720Z,37.05
2019-03-22T10:55:35.347Z,34.61
2019-03-22T10:58:03.528Z,36.26
2019-03-22T11:00:33.073Z,32.99
2019-03-22T11:03:02.592Z,33.44
2019-03-22T11:05:32.159Z,36.64
2019-03-22T11:08:01.893Z,37.12
2019-03-22T11:10:31.617Z,37.16
2019-03-22T11:13:02.701Z,39.99
2019-03-22T11:15:32.229Z,39.14
2019-03-22T11:18:01.736Z,38.82
2019-03-22T11:20:31.296Z,40.23
2019-03-22T11:23:00.810Z,38.59
2019-03-22T11:25:30.318Z,36.26
2019-03-22T11:27:59.822Z,36.31
2019-03-22T11:30:29.338Z,36.63
2019-03-22T11:32:58.862Z,36.04
2019-03-22T11:35:28.351Z,34.42
2019-03-22T11:37:57.903Z,34.72
2019-03-22T11:40:27.408Z,34.81
2019-03-22T11:42:56.937Z,36.41
2019-03-22T11:45:26.564Z,34.75
2019-03-22T11:47:56.053Z,35.58
2019-03-22T11:50:25.643Z,35.58
2019-03-22T11:52:55.138Z,34.39
2019-03-22T11:55:24.720Z,35.30
2019-03-22T11:57:54.224Z,33.42
2019-03-22T12:00:26.298Z,33.22
2019-03-22T12:02:55.884Z,33.95
2019-03-22T12:05:25.667Z,34.10
2019-03-22T12:07:55.251Z,35.62
2019-03-22T12:10:24.773Z,32.57
2019-03-22T12:12:54.314Z,32.06
2019-03-22T12:15:27.326Z,34.20
2019-03-22T12:17:56.805Z,33.58
2019-03-22T12:20:26.363Z,32.91
2019-03-22T12:22:55.936Z,33.26
2019-03-22T12:25:28.602Z,31.49
2019-03-22T12:27:58.100Z,32.30
2019-03-22T12:30:27.600Z,31.30
2019-03-22T12:32:57.231Z,31.62
2019-03-22T12:35:26.896Z,32.01
2019-03-22T12:37:57.749Z,32.07
2019-03-22T12:40:27.426Z,31.59
2019-03-22T12:42:56.920Z,32.71
2019-03-22T12:45:29.635Z,33.47
2019-03-22T12:47:59.273Z,31.67
2019-03-22T12:50:29.158Z,31.82
2019-03-22T12:52:58.816Z,31.93
2019-03-22T12:55:28.569Z,31.99
2019-03-22T12:57:59.483Z,31.48
2019-03-22T13:00:29.390Z,31.74
2019-03-22T13:02:58.915Z,31.30
2019-03-22T13:05:28.594Z,32.06
2019-03-22T13:07:58.120Z,31.21
2019-03-22T13:10:29.412Z,33.14
2019-03-22T13:12:59.155Z,32.84
2019-03-22T13:15:28.720Z,32.67
2019-03-22T13:17:58.256Z,32.80
2019-03-22T13:20:27.744Z,32.58
2019-03-22T13:22:57.217Z,31.98
2019-03-22T13:25:26.723Z,32.25
2019-03-22T13:27:56.328Z,31.99
2019-03-22T13:30:35.321Z,31.09
2019-03-22T13:33:05.629Z,31.81
2019-03-22T13:35:35.206Z,30.81
2019-03-22T13:38:04.918Z,32.26
2019-03-22T13:40:34.401Z,32.05
2019-03-22T13:43:03.993Z,32.65
2019-03-22T13:45:33.840Z,31.79
2019-03-22T13:48:03.345Z,32.06
2019-03-22T13:50:32.835Z,31.35
2019-03-22T13:53:02.327Z,32.34
2019-03-22T13:55:31.918Z,32.58
2019-03-22T13:58:03.015Z,31.62
2019-03-22T14:00:32.514Z,32.01
2019-03-22T14:03:03.249Z,32.43
2019-03-22T14:05:33.001Z,32.05
2019-03-22T14:08:02.495Z,31.64
2019-03-22T14:10:34.229Z,32.70
2019-03-22T14:13:06.640Z,31.67
2019-03-22T14:15:36.131Z,32.94
2019-03-22T14:18:06.140Z,31.66
2019-03-22T14:20:35.733Z,31.02
2019-03-22T14:23:05.443Z,32.19
2019-03-22T14:25:34.941Z,32.21
2019-03-22T14:28:04.642Z,31.73
2019-03-22T14:30:34.140Z,31.55
2019-03-22T14:33:12.972Z,31.90
2019-03-22T14:35:35.137Z,31.16
2019-03-22T14:38:04.926Z,31.42
2019-03-22T14:40:34.828Z,31.26
2019-03-22T14:43:05.714Z,30.69
2019-03-22T14:45:35.403Z,31.12
2019-03-22T14:48:05.036Z,31.66
2019-03-22T14:50:34.541Z,30.96
2019-03-22T14:53:04.218Z,30.88
2019-03-22T14:55:33.735Z,31.26
2019-03-22T14:58:03.401Z,30.95
2019-03-22T15:00:33.201Z,31.81
2019-03-22T15:03:04.512Z,30.59
2019-03-22T15:05:34.031Z,30.30
2019-03-22T15:08:03.541Z,30.53
2019-03-22T15:10:33.107Z,30.57
2019-03-22T15:13:02.762Z,31.44
2019-03-22T15:15:33.940Z,31.54
2019-03-22T15:18:11.150Z,29.55
2019-03-22T15:20:58.759Z,31.09
2019-03-22T15:23:34.176Z,31.17
2019-03-22T15:26:18.820Z,31.11
2019-03-22T15:29:05.882Z,31.67
2019-03-22T15:31:41.088Z,32.26
2019-03-22T15:34:19.620Z,30.95
2019-03-22T15:36:53.261Z,30.52
2019-03-22T15:39:31.264Z,31.83
2019-03-22T15:42:00.892Z,30.89
2019-03-22T15:44:30.429Z,30.42
2019-03-22T15:46:59.976Z,30.88
2019-03-22T15:49:29.475Z,30.31
2019-03-22T15:51:59.166Z,30.75
2019-03-22T15:54:28.715Z,31.54
2019-03-22T15:56:58.291Z,32.07
2019-03-22T15:59:27.790Z,31.18
2019-03-22T16:01:57.310Z,31.38
2019-03-22T16:04:26.872Z,32.49
2019-03-22T16:06:56.448Z,33.23
2019-03-22T16:09:25.960Z,33.10
2019-03-22T16:11:55.425Z,33.06
2019-03-22T16:14:24.954Z,32.96
2019-03-22T16:16:54.465Z,33.31
2019-03-22T16:19:23.960Z,33.86
2019-03-22T16:21:53.530Z,32.81
2019-03-22T16:24:23.159Z,33.84
2019-03-22T16:26:52.634Z,34.90
2019-03-22T16:29:22.170Z,36.66
2019-03-22T16:31:51.720Z,35.17
2019-03-22T16:34:21.224Z,34.71
2019-03-22T16:36:50.725Z,34.86
2019-03-22T16:39:20.257Z,34.39
2019-03-22T16:41:49.774Z,35.42
2019-03-22T16:44:19.264Z,33.62
2019-03-22T16:46:48.759Z,34.79
2019-03-22T16:49:18.274Z,35.56
2019-03-22T16:51:47.789Z,35.18
2019-03-22T16:54:17.315Z,35.81
2019-03-22T16:56:46.945Z,36.13
2019-03-22T16:59:17.437Z,36.85
2019-03-22T17:01:46.953Z,36.70
2019-03-22T17:04:16.446Z,38.18
2019-03-22T17:06:46.031Z,38.84
2019-03-22T17:09:15.707Z,38.92
2019-03-22T17:11:45.424Z,38.86
2019-03-22T17:14:15.013Z,38.30
2019-03-22T17:16:44.494Z,38.94
2019-03-22T17:19:14.105Z,39.23
2019-03-22T17:21:43.659Z,38.04
2019-03-22T17:24:13.171Z,39.09
2019-03-22T17:26:42.699Z,39.92
2019-03-22T17:29:12.199Z,39.29
2019-03-22T17:31:41.695Z,40.67
2019-03-22T17:34:14.457Z,40.32
2019-03-22T17:36:42.459Z,40.41
2019-03-22T17:39:12.009Z,40.90
2019-03-22T17:41:41.537Z,42.30
2019-03-22T17:44:11.126Z,42.24
2019-03-22T17:46:40.637Z,42.05
2019-03-22T17:49:10.112Z,42.79
2019-03-22T17:51:39.702Z,44.72
2019-03-22T17:54:09.232Z,44.74
2019-03-22T17:56:38.769Z,45.25
2019-03-22T17:59:08.286Z,45.52
2019-03-22T18:01:37.807Z,46.35
2019-03-22T18:04:07.454Z,48.13
2019-03-22T18:06:36.970Z,49.62
2019-03-22T18:09:07.409Z,51.16
2019-03-22T18:11:36.909Z,53.46
2019-03-22T18:14:06.474Z,54.16
2019-03-22T18:16:35.987Z,56.22
2019-03-22T18:19:05.666Z,57.69
2019-03-22T18:21:35.184Z,58.04
2019-03-22T18:24:05.012Z,59.24
2019-03-22T18:26:34.559Z,60.54
2019-03-22T18:29:04.156Z,61.47
2019-03-22T18:31:33.673Z,63.06
2019-03-22T18:34:03.247Z,63.83
2019-03-22T18:36:32.778Z,64.04
2019-03-22T18:39:02.246Z,64.63
2019-03-22T18:41:31.791Z,65.53
2019-03-22T18:44:01.354Z,67.21
2019-03-22T18:46:31.004Z,68.37
2019-03-22T18:49:00.638Z,68.63
2019-03-22T18:51:30.198Z,69.28
2019-03-22T18:53:59.775Z,69.06
2019-03-22T18:56:29.311Z,68.75
2019-03-22T18:58:58.825Z,70.79
2019-03-22T19:01:28.310Z,72.43
2019-03-22T19:03:57.831Z,72.91
2019-03-22T19:06:28.433Z,73.01
2019-03-22T19:08:57.947Z,70.81
2019-03-22T19:11:27.561Z,68.63
2019-03-22T19:13:57.204Z,67.84
2019-03-22T19:16:26.700Z,68.72
2019-03-22T19:18:56.201Z,69.84
2019-03-22T19:21:25.791Z,71.57
2019-03-22T19:23:55.355Z,73.24
2019-03-22T19:26:24.881Z,73.15
2019-03-22T19:28:54.378Z,71.97
2019-03-22T19:31:23.870Z,72.51
2019-03-22T19:33:53.433Z,73.57
2019-03-22T19:36:22.996Z,73.83
2019-03-22T19:38:52.509Z,74.70
2019-03-22T19:41:22.003Z,73.95
2019-03-22T19:43:51.516Z,74.42
2019-03-22T19:46:21.048Z,75.28
2019-03-22T19:48:50.574Z,76.62
2019-03-22T19:51:20.073Z,77.08
2019-03-22T19:53:49.599Z,76.45
2019-03-22T19:56:19.145Z,74.59
2019-03-22T19:58:48.810Z,72.73
2019-03-22T20:01:18.312Z,70.75
2019-03-22T20:03:47.876Z,68.66
2019-03-22T20:06:17.385Z,69.39
2019-03-22T20:08:46.902Z,67.46
2019-03-22T20:11:16.429Z,65.57
2019-03-22T20:13:45.952Z,65.14
2019-03-22T20:16:15.479Z,64.71
2019-03-22T20:18:44.960Z,64.04
2019-03-22T20:21:14.470Z,63.31
2019-03-22T20:23:53.310Z,63.42
2019-03-22T20:26:15.308Z,64.65
2019-03-22T20:28:44.845Z,65.14
2019-03-22T20:31:14.357Z,65.27
2019-03-22T20:33:43.928Z,64.83
2019-03-22T20:36:13.446Z,65.28
2019-03-22T20:38:42.976Z,66.80
2019-03-22T20:41:12.480Z,65.12
2019-03-22T20:43:41.969Z,64.47
2019-03-22T20:46:11.505Z,65.81
2019-03-22T20:48:41.059Z,64.88
2019-03-22T20:51:10.607Z,65.92
2019-03-22T20:53:40.295Z,63.55
2019-03-22T20:56:09.792Z,61.86
2019-03-22T20:58:39.309Z,61.85
2019-03-22T21:01:08.843Z,60.69
2019-03-22T21:03:38.351Z,60.87
2019-03-22T21:06:07.865Z,62.48
2019-03-22T21:08:37.569Z,63.03
2019-03-22T21:11:07.051Z,63.65
2019-03-22T21:13:36.568Z,65.38
2019-03-22T21:16:06.202Z,66.19
2019-03-22T21:18:35.733Z,64.38
2019-03-22T21:21:05.320Z,66.66
2019-03-22T21:23:36.634Z,64.99
2019-03-22T21:26:06.128Z,65.53
2019-03-22T21:28:35.664Z,65.53
2019-03-22T21:31:05.136Z,64.95
2019-03-22T21:33:34.661Z,62.49
2019-03-22T21:36:04.215Z,64.40
2019-03-22T21:38:33.813Z,65.63
2019-03-22T21:41:04.290Z,67.42
2019-03-22T21:43:33.919Z,67.62
2019-03-22T21:46:03.519Z,67.98
2019-03-22T21:48:33.041Z,66.27
2019-03-22T21:51:02.592Z,66.70
2019-03-22T21:53:32.095Z,66.92
2019-03-22T21:56:01.600Z,66.46
2019-03-22T21:58:31.124Z,65.36
2019-03-22T22:01:00.641Z,65.95
2019-03-22T22:03:30.137Z,64.62
2019-03-22T22:05:59.656Z,64.20
2019-03-22T22:08:29.145Z,64.26
2019-03-22T22:11:00.014Z,60.97
2019-03-22T22:13:29.850Z,62.34
2019-03-22T22:15:59.344Z,62.21
2019-03-22T22:18:28.876Z,61.60
2019-03-22T22:20:58.395Z,63.05
2019-03-22T22:23:27.963Z,65.86
2019-03-22T22:25:57.593Z,66.25
2019-03-22T22:28:27.100Z,66.70
2019-03-22T22:30:56.641Z,68.95
2019-03-22T22:33:26.200Z,70.36
2019-03-22T22:35:58.941Z,70.83
2019-03-22T22:38:26.948Z,71.52
2019-03-22T22:40:56.474Z,72.10
2019-03-22T22:43:26.037Z,72.97
2019-03-22T22:45:55.557Z,74.06
2019-03-22T22:48:25.063Z,75.55
2019-03-22T22:50:54.663Z,75.99
2019-03-22T22:53:24.211Z,77.76
2019-03-22T22:55:53.713Z,77.50
2019-03-22T22:58:23.222Z,79.13
2019-03-22T23:00:52.917Z,79.41
2019-03-22T23:03:22.606Z,79.32
2019-03-22T23:05:52.131Z,80.28
2019-03-22T23:08:21.624Z,81.53
2019-03-22T23:10:51.196Z,81.49
2019-03-22T23:13:20.781Z,81.66
2019-03-22T23:15:50.295Z,82.00
2019-03-22T23:18:19.817Z,83.81
2019-03-22T23:20:49.348Z,84.03
2019-03-22T23:23:18.842Z,84.21
2019-03-22T23:25:48.388Z,85.26
2019-03-22T23:28:17.902Z,85.89
2019-03-22T23:30:47.413Z,86.65
2019-03-22T23:33:16.925Z,86.60
2019-03-22T23:35:46.414Z,87.49
2019-03-22T23:38:15.928Z,88.50
2019-03-22T23:40:45.429Z,89.05
2019-03-22T23:43:15.069Z,89.56
2019-03-22T23:45:45.842Z,90.05
2019-03-22T23:48:15.323Z,90.02
2019-03-22T23:50:44.911Z,90.49
2019-03-22T23:53:14.484Z,91.06
2019-03-22T23:55:43.954Z,91.17
2019-03-22T23:58:13.530Z,91.77
